QRA weather

Rand Airport
Johannesburg, Gauteng, South Africa

Public forecast

Using degrees Celsius for public forecast. Weather courtesy of forecast.io.

METAR (pilot weather report)

Report is more than 6 hours old.

Retrieved 2017/08/16 10:00 UTC (9 hours ago):

FAGM 161000Z 34026KT 8000 PO NSC 20/M06 Q1018

TAF (pilot weather forecast)

Forecast is more than 12 hours old.

Closest forecast is OR Tambo International Airport, 8.0 nm (14.9 km) NE. Retrieved 2017/08/15 00:00 UTC (2 days ago):

TAF FAOR 152200Z 1600/1706 33008KT CAVOK BECMG 1605/1607 33017KT TEMPO 1609/1615 33017G27KT BECMG 1616/1618 26013KT BECMG 1619/1621 19013KT FM170400 19013KT 9999 SCT025 TX22/1613Z TN12/1604Z